createdAt,value
2017-09-12T00:00:07.839Z,933.79
2017-09-12T00:00:35.992Z,933.82
2017-09-12T00:01:04.025Z,933.82
2017-09-12T00:01:32.168Z,933.84
2017-09-12T00:02:00.122Z,933.85
2017-09-12T00:02:28.281Z,933.87
2017-09-12T00:02:56.218Z,933.86
2017-09-12T00:03:24.350Z,933.87
2017-09-12T00:03:52.288Z,933.86
2017-09-12T00:04:20.325Z,933.88
2017-09-12T00:04:48.487Z,933.85
2017-09-12T00:05:16.525Z,933.9
2017-09-12T00:05:44.490Z,933.89
2017-09-12T00:06:12.646Z,933.89
2017-09-12T00:06:40.801Z,933.91
2017-09-12T00:07:08.822Z,933.88
2017-09-12T00:07:36.799Z,933.89
2017-09-12T00:08:04.964Z,933.89
2017-09-12T00:08:33.082Z,933.88
2017-09-12T00:09:01.227Z,933.89
2017-09-12T00:09:29.302Z,933.87
2017-09-12T00:09:57.548Z,933.88
2017-09-12T00:10:25.563Z,933.84
2017-09-12T00:10:53.708Z,933.87
2017-09-12T00:11:21.674Z,933.83
2017-09-12T00:11:49.823Z,933.86
2017-09-12T00:12:17.949Z,933.81
2017-09-12T00:12:45.979Z,933.82
2017-09-12T00:13:14.044Z,933.78
2017-09-12T00:13:42.213Z,933.83
2017-09-12T00:14:10.262Z,933.8
2017-09-12T00:14:38.313Z,933.78
2017-09-12T00:15:06.548Z,933.79
2017-09-12T00:15:34.578Z,933.78
2017-09-12T00:16:02.328Z,933.76
2017-09-12T00:16:30.284Z,933.76
2017-09-12T00:16:58.266Z,933.76
2017-09-12T00:17:26.122Z,933.73
2017-09-12T00:17:54.164Z,933.76
2017-09-12T00:18:21.926Z,933.76
2017-09-12T00:18:49.964Z,933.76
2017-09-12T00:19:17.816Z,933.77
2017-09-12T00:19:45.961Z,933.75
2017-09-12T00:20:14.100Z,933.74
2017-09-12T00:20:41.833Z,933.76
2017-09-12T00:21:09.865Z,933.76
2017-09-12T00:21:37.809Z,933.79
2017-09-12T00:22:05.952Z,933.81
2017-09-12T00:22:34.039Z,933.83
2017-09-12T00:23:02.099Z,933.86
2017-09-12T00:23:30.187Z,933.88
2017-09-12T00:23:58.117Z,933.91
2017-09-12T00:24:26.037Z,933.88
2017-09-12T00:24:53.966Z,933.92
2017-09-12T00:25:22.219Z,933.93
2017-09-12T00:25:50.184Z,933.93
2017-09-12T00:26:18.356Z,933.97
2017-09-12T00:26:46.279Z,933.96
2017-09-12T00:27:14.222Z,933.96
2017-09-12T00:27:42.357Z,933.98
2017-09-12T00:28:10.473Z,933.98
2017-09-12T00:28:38.650Z,933.99
2017-09-12T00:29:06.587Z,933.99
2017-09-12T00:29:34.429Z,934.01
2017-09-12T00:30:02.571Z,934
2017-09-12T00:30:30.514Z,933.99
2017-09-12T00:30:58.634Z,934
2017-09-12T00:31:26.663Z,933.96
2017-09-12T00:31:54.815Z,933.97
2017-09-12T00:32:22.748Z,933.96
2017-09-12T00:32:50.801Z,933.95
2017-09-12T00:33:18.941Z,933.95
2017-09-12T00:33:46.906Z,933.94
2017-09-12T00:34:14.851Z,933.95
2017-09-12T00:34:43.008Z,933.93
2017-09-12T00:35:11.261Z,933.91
2017-09-12T00:35:39.393Z,933.9
2017-09-12T00:36:07.441Z,933.9
2017-09-12T00:36:35.603Z,933.92
2017-09-12T00:37:03.749Z,933.94
2017-09-12T00:37:31.685Z,933.93
2017-09-12T00:37:59.831Z,933.94
2017-09-12T00:38:27.870Z,933.95
2017-09-12T00:38:55.896Z,933.96
2017-09-12T00:39:23.915Z,933.94
2017-09-12T00:39:51.928Z,933.94
2017-09-12T00:40:20.188Z,933.97
2017-09-12T00:40:48.119Z,933.99
2017-09-12T00:41:16.312Z,933.99
2017-09-12T00:41:44.431Z,934
2017-09-12T00:42:12.392Z,933.99
2017-09-12T00:42:40.327Z,934.01
2017-09-12T00:43:08.370Z,934.02
2017-09-12T00:43:36.454Z,934.01
2017-09-12T00:44:04.491Z,933.99
2017-09-12T00:44:32.530Z,934
2017-09-12T00:45:00.597Z,934
2017-09-12T00:45:28.861Z,934.03
2017-09-12T00:45:57.055Z,934.04
2017-09-12T00:46:25.081Z,934.03
2017-09-12T00:46:53.132Z,934.04
2017-09-12T00:47:21.162Z,934.04
2017-09-12T00:47:49.134Z,934.05
2017-09-12T00:48:17.162Z,934.04
2017-09-12T00:48:45.024Z,934.07
2017-09-12T00:49:13.156Z,934.08
2017-09-12T00:49:41.191Z,934.06
2017-09-12T00:50:09.353Z,934.07
2017-09-12T00:50:37.404Z,934.1
2017-09-12T00:51:05.524Z,934.08
2017-09-12T00:51:33.560Z,934.07
2017-09-12T00:52:01.714Z,934.07
2017-09-12T00:52:29.854Z,934.08
2017-09-12T00:52:57.884Z,934.06
2017-09-12T00:53:25.929Z,934.08
2017-09-12T00:53:53.863Z,934.09
2017-09-12T00:54:21.798Z,934.07
2017-09-12T00:54:49.639Z,934.09
2017-09-12T00:55:17.882Z,934.1
2017-09-12T00:55:46.013Z,934.08
2017-09-12T00:56:14.070Z,934.12
2017-09-12T00:56:42.108Z,934.1
2017-09-12T00:57:10.228Z,934.13
2017-09-12T00:57:38.383Z,934.14
2017-09-12T00:58:06.342Z,934.16
2017-09-12T00:58:34.297Z,934.13
2017-09-12T00:59:02.430Z,934.14
2017-09-12T00:59:30.467Z,934.15
2017-09-12T00:59:58.430Z,934.11
2017-09-12T01:00:26.576Z,934.13
2017-09-12T01:00:54.314Z,934.15
2017-09-12T01:01:22.373Z,934.13
2017-09-12T01:01:50.295Z,934.16
2017-09-12T01:02:18.261Z,934.18
2017-09-12T01:02:46.294Z,934.14
2017-09-12T01:03:14.454Z,934.19
2017-09-12T01:03:42.514Z,934.16
2017-09-12T01:04:10.580Z,934.14
2017-09-12T01:04:38.602Z,934.19
2017-09-12T01:05:06.640Z,934.16
2017-09-12T01:05:34.786Z,934.18
2017-09-12T01:06:02.841Z,934.19
2017-09-12T01:06:30.893Z,934.14
2017-09-12T01:06:58.859Z,934.16
2017-09-12T01:07:26.787Z,934.16
2017-09-12T01:07:54.848Z,934.15
2017-09-12T01:08:22.796Z,934.11
2017-09-12T01:08:50.844Z,934.14
2017-09-12T01:09:18.650Z,934.17
2017-09-12T01:09:46.579Z,934.14
2017-09-12T01:10:14.631Z,934.17
2017-09-12T01:10:42.762Z,934.16
2017-09-12T01:11:10.587Z,934.15
2017-09-12T01:11:38.423Z,934.18
2017-09-12T01:12:06.543Z,934.2
2017-09-12T01:12:34.502Z,934.19
2017-09-12T01:13:02.449Z,934.2
2017-09-12T01:13:30.490Z,934.17
2017-09-12T01:13:58.672Z,934.19
2017-09-12T01:14:26.588Z,934.18
2017-09-12T01:14:54.620Z,934.18
2017-09-12T01:15:22.576Z,934.17
2017-09-12T01:15:50.835Z,934.17
2017-09-12T01:16:18.751Z,934.14
2017-09-12T01:16:46.679Z,934.13
2017-09-12T01:17:14.658Z,934.13
2017-09-12T01:17:42.805Z,934.13
2017-09-12T01:18:10.957Z,934.14
2017-09-12T01:18:38.983Z,934.14
2017-09-12T01:19:07.023Z,934.11
2017-09-12T01:19:35.018Z,934.12
2017-09-12T01:20:03.552Z,934.17
2017-09-12T01:20:31.790Z,934.14
2017-09-12T01:20:59.847Z,934.15
2017-09-12T01:21:27.891Z,934.16
2017-09-12T01:21:55.936Z,934.14
2017-09-12T01:22:23.894Z,934.14
2017-09-12T01:22:51.851Z,934.15
2017-09-12T01:23:19.829Z,934.17
2017-09-12T01:23:48.004Z,934.15
2017-09-12T01:24:15.954Z,934.15
2017-09-12T01:24:43.972Z,934.15
2017-09-12T01:25:12.063Z,934.11
2017-09-12T01:25:40.294Z,934.15
2017-09-12T01:26:08.233Z,934.12
2017-09-12T01:26:36.282Z,934.15
2017-09-12T01:27:04.321Z,934.11
2017-09-12T01:27:32.354Z,934.12
2017-09-12T01:28:00.296Z,934.12
2017-09-12T01:28:28.346Z,934.08
2017-09-12T01:28:56.493Z,934.11
2017-09-12T01:29:24.654Z,934.08
2017-09-12T01:29:52.702Z,934.06
2017-09-12T01:30:20.727Z,934.06
2017-09-12T01:30:48.861Z,934.07
2017-09-12T01:31:16.933Z,934.06
2017-09-12T01:31:44.954Z,934.05
2017-09-12T01:32:12.948Z,934.06
2017-09-12T01:32:40.780Z,934.05
2017-09-12T01:33:09.096Z,934.05
2017-09-12T01:33:37.115Z,933.98
2017-09-12T01:34:05.115Z,934.01
2017-09-12T01:34:33.146Z,933.99
2017-09-12T01:35:01.293Z,934
2017-09-12T01:35:29.348Z,934
2017-09-12T01:35:57.314Z,933.98
2017-09-12T01:36:25.279Z,933.98
2017-09-12T01:36:53.101Z,933.97
2017-09-12T01:37:21.154Z,933.97
2017-09-12T01:37:49.302Z,933.98
2017-09-12T01:38:17.459Z,934
2017-09-12T01:38:45.496Z,933.98
2017-09-12T01:39:13.636Z,934
2017-09-12T01:39:41.805Z,933.99
2017-09-12T01:40:09.764Z,934
2017-09-12T01:40:37.806Z,934.02
2017-09-12T01:41:05.726Z,933.99
2017-09-12T01:41:33.741Z,934.02
2017-09-12T01:42:01.702Z,933.98
2017-09-12T01:42:29.646Z,934.02
2017-09-12T01:42:57.692Z,934
2017-09-12T01:43:25.819Z,934
2017-09-12T01:43:53.950Z,934
2017-09-12T01:44:21.870Z,934.04
2017-09-12T01:44:49.895Z,933.99
2017-09-12T01:45:17.981Z,934
2017-09-12T01:45:46.119Z,934.03
2017-09-12T01:46:14.138Z,934.04
2017-09-12T01:46:42.053Z,934.05
2017-09-12T01:47:09.978Z,934.01
2017-09-12T01:47:38.011Z,934.03
2017-09-12T01:48:06.162Z,934.05
2017-09-12T01:48:34.077Z,934.05
2017-09-12T01:49:02.216Z,934.02
2017-09-12T01:49:30.265Z,934.03
2017-09-12T01:49:58.232Z,934.06
2017-09-12T01:50:26.211Z,934.03
2017-09-12T01:50:54.389Z,934.02
2017-09-12T01:51:22.443Z,934.05
2017-09-12T01:51:50.474Z,934.05
2017-09-12T01:52:18.503Z,934.03
2017-09-12T01:52:46.684Z,934.04
2017-09-12T01:53:14.443Z,934.02
2017-09-12T01:53:42.593Z,934.02
2017-09-12T01:54:10.629Z,934.01
2017-09-12T01:54:38.745Z,934.03
2017-09-12T01:55:06.885Z,934.02
2017-09-12T01:55:34.907Z,934.01
2017-09-12T01:56:03.161Z,933.99
2017-09-12T01:56:31.195Z,934.01
2017-09-12T01:56:59.249Z,934
2017-09-12T01:57:27.279Z,934.03
2017-09-12T01:57:55.337Z,934.02
2017-09-12T01:58:23.387Z,934.03
2017-09-12T01:58:51.504Z,933.99
2017-09-12T01:59:19.459Z,933.99
2017-09-12T01:59:47.592Z,934.02
2017-09-12T02:00:15.639Z,934.01
2017-09-12T02:00:43.790Z,934.01
2017-09-12T02:01:11.927Z,934.02
2017-09-12T02:01:40.046Z,934
2017-09-12T02:02:08.190Z,933.99
2017-09-12T02:02:36.167Z,933.97
2017-09-12T02:03:04.314Z,933.98
2017-09-12T02:03:32.356Z,933.98
2017-09-12T02:04:00.397Z,933.98
2017-09-12T02:04:28.469Z,933.96
2017-09-12T02:04:56.404Z,933.97
2017-09-12T02:05:24.535Z,933.95
2017-09-12T02:05:52.560Z,933.92
2017-09-12T02:06:20.630Z,933.93
2017-09-12T02:06:48.556Z,933.95
2017-09-12T02:07:16.400Z,933.91
2017-09-12T02:07:44.446Z,933.95
2017-09-12T02:08:12.582Z,933.94
2017-09-12T02:08:40.544Z,933.95
2017-09-12T02:09:08.575Z,933.95
2017-09-12T02:09:36.715Z,933.97
2017-09-12T02:10:04.733Z,933.98
2017-09-12T02:10:32.776Z,933.97
2017-09-12T02:11:00.904Z,933.97
2017-09-12T02:11:28.936Z,933.94
2017-09-12T02:11:56.806Z,933.95
2017-09-12T02:12:24.840Z,933.91
2017-09-12T02:12:52.792Z,933.95
2017-09-12T02:13:20.619Z,933.96
2017-09-12T02:13:48.551Z,933.95
2017-09-12T02:14:16.683Z,933.94
2017-09-12T02:14:44.732Z,933.92
2017-09-12T02:15:12.767Z,933.93
2017-09-12T02:15:40.817Z,933.93
2017-09-12T02:16:08.781Z,933.91
2017-09-12T02:16:36.934Z,933.94
2017-09-12T02:17:04.692Z,933.94
2017-09-12T02:17:32.637Z,933.92
2017-09-12T02:18:00.605Z,933.94
2017-09-12T02:18:28.556Z,933.89
2017-09-12T02:18:56.444Z,933.93
2017-09-12T02:19:24.475Z,933.93
2017-09-12T02:19:52.611Z,933.92
2017-09-12T02:20:20.456Z,933.92
2017-09-12T02:20:48.290Z,933.9
2017-09-12T02:21:16.335Z,933.9
2017-09-12T02:21:44.483Z,933.89
2017-09-12T02:22:12.534Z,933.91
2017-09-12T02:22:40.656Z,933.88
2017-09-12T02:23:08.706Z,933.91
2017-09-12T02:23:36.892Z,933.89
2017-09-12T02:24:04.838Z,933.87
2017-09-12T02:24:33.003Z,933.86
2017-09-12T02:25:01.144Z,933.85
2017-09-12T02:25:29.197Z,933.83
2017-09-12T02:25:57.159Z,933.85
2017-09-12T02:26:25.262Z,933.84
2017-09-12T02:26:53.290Z,933.83
2017-09-12T02:27:21.299Z,933.84
2017-09-12T02:27:49.344Z,933.82
2017-09-12T02:28:17.371Z,933.85
2017-09-12T02:28:45.503Z,933.85
2017-09-12T02:29:13.519Z,933.87
2017-09-12T02:29:41.453Z,933.85
2017-09-12T02:30:09.489Z,933.87
2017-09-12T02:30:37.534Z,933.85
2017-09-12T02:31:05.487Z,933.81
2017-09-12T02:31:33.740Z,933.81
2017-09-12T02:32:01.672Z,933.83
2017-09-12T02:32:29.829Z,933.83
2017-09-12T02:32:57.913Z,933.78
2017-09-12T02:33:25.973Z,933.81
2017-09-12T02:33:54.145Z,933.81
2017-09-12T02:34:22.268Z,933.83
2017-09-12T02:34:50.140Z,933.84
2017-09-12T02:35:18.282Z,933.85
2017-09-12T02:35:46.332Z,933.82
2017-09-12T02:36:14.555Z,933.85
2017-09-12T02:36:42.482Z,933.86
2017-09-12T02:37:10.513Z,933.84
2017-09-12T02:37:38.482Z,933.83
2017-09-12T02:38:06.402Z,933.88
2017-09-12T02:38:34.458Z,933.88
2017-09-12T02:39:02.370Z,933.84
2017-09-12T02:39:30.321Z,933.86
2017-09-12T02:39:58.181Z,933.89
2017-09-12T02:40:26.338Z,933.87
2017-09-12T02:40:54.314Z,933.87
2017-09-12T02:41:22.495Z,933.86
2017-09-12T02:41:50.487Z,933.89
2017-09-12T02:42:18.524Z,933.88
2017-09-12T02:42:46.499Z,933.87
2017-09-12T02:43:14.640Z,933.9
2017-09-12T02:43:42.560Z,933.9
2017-09-12T02:44:10.709Z,933.88
2017-09-12T02:44:38.758Z,933.86
2017-09-12T02:45:06.839Z,933.89
2017-09-12T02:45:34.813Z,933.9
2017-09-12T02:46:02.875Z,933.9
2017-09-12T02:46:30.941Z,933.9
2017-09-12T02:46:58.779Z,933.92
2017-09-12T02:47:26.651Z,933.92
2017-09-12T02:47:54.703Z,933.92
2017-09-12T02:48:22.668Z,933.9
2017-09-12T02:48:50.608Z,933.93
2017-09-12T02:49:18.763Z,933.95
2017-09-12T02:49:46.726Z,933.93
2017-09-12T02:50:14.774Z,933.93
2017-09-12T02:50:42.790Z,933.94
2017-09-12T02:51:10.826Z,933.95
2017-09-12T02:51:39.083Z,933.98
2017-09-12T02:52:07.233Z,933.98
2017-09-12T02:52:35.380Z,933.96
2017-09-12T02:53:03.433Z,933.96
2017-09-12T02:53:31.371Z,933.94
2017-09-12T02:53:59.512Z,933.98
2017-09-12T02:54:27.574Z,933.95
2017-09-12T02:54:55.619Z,933.94
2017-09-12T02:55:23.661Z,933.91
2017-09-12T02:55:51.699Z,933.91
2017-09-12T02:56:19.865Z,933.91
2017-09-12T02:56:48.110Z,933.92
2017-09-12T02:57:16.064Z,933.91
2017-09-12T02:57:44.245Z,933.9
2017-09-12T02:58:12.076Z,933.91
2017-09-12T02:58:40.146Z,933.91
2017-09-12T02:59:08.207Z,933.92
2017-09-12T02:59:36.337Z,933.9
2017-09-12T03:00:04.059Z,933.95
2017-09-12T03:00:32.219Z,933.91
2017-09-12T03:01:00.383Z,933.9
2017-09-12T03:01:28.534Z,933.9
2017-09-12T03:01:56.468Z,933.88
2017-09-12T03:02:24.421Z,933.89
2017-09-12T03:02:52.430Z,933.91
2017-09-12T03:03:20.365Z,933.89
2017-09-12T03:03:48.283Z,933.9
2017-09-12T03:04:16.352Z,933.87
2017-09-12T03:04:44.414Z,933.86
2017-09-12T03:05:12.353Z,933.88
2017-09-12T03:05:40.398Z,933.88
2017-09-12T03:06:08.454Z,933.88
2017-09-12T03:06:36.606Z,933.87
2017-09-12T03:07:04.636Z,933.85
2017-09-12T03:07:32.789Z,933.85
2017-09-12T03:08:00.875Z,933.84
2017-09-12T03:08:28.923Z,933.88
2017-09-12T03:08:57.049Z,933.85
2017-09-12T03:09:24.998Z,933.85
2017-09-12T03:09:53.009Z,933.81
2017-09-12T03:10:21.040Z,933.86
2017-09-12T03:10:49.169Z,933.85
2017-09-12T03:11:17.199Z,933.88
2017-09-12T03:11:45.376Z,933.85
2017-09-12T03:12:13.350Z,933.83
2017-09-12T03:12:41.386Z,933.84
2017-09-12T03:13:09.457Z,933.8
2017-09-12T03:13:37.485Z,933.82
2017-09-12T03:14:05.123Z,933.83
2017-09-12T03:14:32.980Z,933.82
2017-09-12T03:15:01.117Z,933.78
2017-09-12T03:15:29.088Z,933.78
2017-09-12T03:15:57.035Z,933.75
2017-09-12T03:16:24.880Z,933.8
2017-09-12T03:16:53.008Z,933.79
2017-09-12T03:17:20.932Z,933.79
2017-09-12T03:17:48.873Z,933.77
2017-09-12T03:18:16.929Z,933.75
2017-09-12T03:18:45.086Z,933.76
2017-09-12T03:19:13.210Z,933.75
2017-09-12T03:19:41.170Z,933.78
2017-09-12T03:20:09.129Z,933.74
2017-09-12T03:20:37.168Z,933.74
2017-09-12T03:21:05.229Z,933.76
2017-09-12T03:21:33.258Z,933.76
2017-09-12T03:22:01.510Z,933.74
2017-09-12T03:22:29.433Z,933.76
2017-09-12T03:22:57.608Z,933.75
2017-09-12T03:23:25.658Z,933.73
2017-09-12T03:23:53.668Z,933.73
2017-09-12T03:24:21.494Z,933.77
2017-09-12T03:24:49.464Z,933.74
2017-09-12T03:25:17.498Z,933.72
2017-09-12T03:25:45.436Z,933.75
2017-09-12T03:26:13.606Z,933.72
2017-09-12T03:26:41.454Z,933.75
2017-09-12T03:27:09.535Z,933.79
2017-09-12T03:27:37.590Z,933.76
2017-09-12T03:28:05.740Z,933.74
2017-09-12T03:28:33.914Z,933.75
2017-09-12T03:29:01.942Z,933.76
2017-09-12T03:29:30.026Z,933.77
2017-09-12T03:29:58.168Z,933.74
2017-09-12T03:30:26.297Z,933.74
2017-09-12T03:30:54.235Z,933.74
2017-09-12T03:31:22.273Z,933.74
2017-09-12T03:31:50.317Z,933.77
2017-09-12T03:32:18.287Z,933.76
2017-09-12T03:32:46.138Z,933.76
2017-09-12T03:33:14.268Z,933.75
2017-09-12T03:33:42.316Z,933.74
2017-09-12T03:34:10.446Z,933.71
2017-09-12T03:34:38.482Z,933.74
2017-09-12T03:35:06.543Z,933.75
2017-09-12T03:35:34.698Z,933.74
2017-09-12T03:36:02.755Z,933.74
2017-09-12T03:36:30.694Z,933.71
2017-09-12T03:36:58.850Z,933.72
2017-09-12T03:37:26.811Z,933.73
2017-09-12T03:37:54.918Z,933.71
2017-09-12T03:38:22.882Z,933.7
2017-09-12T03:38:50.831Z,933.71
2017-09-12T03:39:18.885Z,933.7
2017-09-12T03:39:46.833Z,933.7
2017-09-12T03:40:14.786Z,933.7
2017-09-12T03:40:42.830Z,933.68
2017-09-12T03:41:10.762Z,933.69
2017-09-12T03:41:38.709Z,933.68
2017-09-12T03:42:06.855Z,933.67
2017-09-12T03:42:34.883Z,933.65
2017-09-12T03:43:02.865Z,933.68
2017-09-12T03:43:30.884Z,933.7
2017-09-12T03:43:58.730Z,933.7
2017-09-12T03:44:26.674Z,933.74
2017-09-12T03:44:54.628Z,933.7
2017-09-12T03:45:22.737Z,933.69
2017-09-12T03:45:50.672Z,933.65
2017-09-12T03:46:18.613Z,933.68
2017-09-12T03:46:46.662Z,933.7
2017-09-12T03:47:14.805Z,933.7
2017-09-12T03:47:42.782Z,933.69
2017-09-12T03:48:10.923Z,933.7
2017-09-12T03:48:38.862Z,933.7
2017-09-12T03:49:06.821Z,933.69
2017-09-12T03:49:34.643Z,933.67
2017-09-12T03:50:02.601Z,933.64
2017-09-12T03:50:30.650Z,933.68
2017-09-12T03:50:58.595Z,933.69
2017-09-12T03:51:26.639Z,933.66
2017-09-12T03:51:54.797Z,933.66
2017-09-12T03:52:22.946Z,933.63
2017-09-12T03:52:51.109Z,933.62
2017-09-12T03:53:19.256Z,933.56
2017-09-12T03:53:47.405Z,933.58
2017-09-12T03:54:15.439Z,933.61
2017-09-12T03:54:43.397Z,933.59
2017-09-12T03:55:11.441Z,933.59
2017-09-12T03:55:39.503Z,933.56
2017-09-12T03:56:07.555Z,933.57
2017-09-12T03:56:35.703Z,933.61
2017-09-12T03:57:03.830Z,933.58
2017-09-12T03:57:32.046Z,933.61
2017-09-12T03:57:59.883Z,933.59
2017-09-12T03:58:27.936Z,933.62
2017-09-12T03:58:56.145Z,933.61
2017-09-12T03:59:24.226Z,933.61
2017-09-12T03:59:52.287Z,933.62
2017-09-12T04:00:20.042Z,933.63
2017-09-12T04:00:48.094Z,933.65
2017-09-12T04:01:16.137Z,933.64
2017-09-12T04:01:44.046Z,933.63
2017-09-12T04:02:12.190Z,933.62
2017-09-12T04:02:40.318Z,933.6
2017-09-12T04:03:08.464Z,933.6
2017-09-12T04:03:36.497Z,933.64
2017-09-12T04:04:04.521Z,933.63
2017-09-12T04:04:32.646Z,933.61
2017-09-12T04:05:00.611Z,933.63
2017-09-12T04:05:28.641Z,933.64
2017-09-12T04:05:56.800Z,933.65
2017-09-12T04:06:24.937Z,933.63
2017-09-12T04:06:52.987Z,933.62
2017-09-12T04:07:20.935Z,933.64
2017-09-12T04:07:49.074Z,933.62
2017-09-12T04:08:17.098Z,933.6
2017-09-12T04:08:45.042Z,933.62
2017-09-12T04:09:12.994Z,933.61
2017-09-12T04:09:40.807Z,933.65
2017-09-12T04:10:08.833Z,933.65
2017-09-12T04:10:36.786Z,933.67
2017-09-12T04:11:04.648Z,933.63
2017-09-12T04:11:32.384Z,933.62
2017-09-12T04:12:00.191Z,933.65
2017-09-12T04:12:28.365Z,933.64
2017-09-12T04:12:56.315Z,933.65
2017-09-12T04:13:24.449Z,933.62
2017-09-12T04:13:52.508Z,933.6
2017-09-12T04:14:20.580Z,933.64
2017-09-12T04:14:48.726Z,933.64
2017-09-12T04:15:16.873Z,933.61
2017-09-12T04:15:44.925Z,933.59
2017-09-12T04:16:12.972Z,933.57
2017-09-12T04:16:41.133Z,933.57
2017-09-12T04:17:09.182Z,933.59
2017-09-12T04:17:37.194Z,933.59
2017-09-12T04:18:05.035Z,933.62
2017-09-12T04:18:33.058Z,933.62
2017-09-12T04:19:01.014Z,933.58
2017-09-12T04:19:29.039Z,933.61
2017-09-12T04:19:56.985Z,933.57
2017-09-12T04:20:25.004Z,933.58
2017-09-12T04:20:52.948Z,933.57
2017-09-12T04:21:20.894Z,933.57
2017-09-12T04:21:48.862Z,933.61
2017-09-12T04:22:16.904Z,933.59
2017-09-12T04:22:44.949Z,933.58
2017-09-12T04:23:13.009Z,933.54
2017-09-12T04:23:41.044Z,933.53
2017-09-12T04:24:08.985Z,933.53
2017-09-12T04:24:37.054Z,933.53
2017-09-12T04:25:05.011Z,933.5
2017-09-12T04:25:33.046Z,933.52
2017-09-12T04:26:01.009Z,933.51
2017-09-12T04:26:29.069Z,933.5
2017-09-12T04:26:56.907Z,933.49
2017-09-12T04:27:25.134Z,933.48
2017-09-12T04:27:53.144Z,933.5
2017-09-12T04:28:21.672Z,933.45
2017-09-12T04:28:49.710Z,933.45
2017-09-12T04:29:17.740Z,933.5
2017-09-12T04:29:45.696Z,933.46
2017-09-12T04:30:13.735Z,933.46
2017-09-12T04:30:41.694Z,933.45
2017-09-12T04:31:09.833Z,933.47
2017-09-12T04:31:37.861Z,933.45
2017-09-12T04:32:05.840Z,933.44
2017-09-12T04:32:33.910Z,933.46
2017-09-12T04:33:01.945Z,933.44
2017-09-12T04:33:30.010Z,933.46
2017-09-12T04:33:58.146Z,933.45
2017-09-12T04:34:26.215Z,933.43
2017-09-12T04:34:54.249Z,933.44
2017-09-12T04:35:22.233Z,933.47
2017-09-12T04:35:50.244Z,933.43
2017-09-12T04:36:18.187Z,933.41
2017-09-12T04:36:46.115Z,933.42
2017-09-12T04:37:14.159Z,933.44
2017-09-12T04:37:42.416Z,933.41
2017-09-12T04:38:10.353Z,933.41
2017-09-12T04:38:38.311Z,933.42
2017-09-12T04:39:06.335Z,933.38
2017-09-12T04:39:34.159Z,933.41
2017-09-12T04:40:02.223Z,933.4
2017-09-12T04:40:30.248Z,933.41
2017-09-12T04:40:58.174Z,933.42
2017-09-12T04:41:26.293Z,933.37
2017-09-12T04:41:54.425Z,933.41
2017-09-12T04:42:22.495Z,933.37
2017-09-12T04:42:50.564Z,933.37
2017-09-12T04:43:18.606Z,933.38
2017-09-12T04:43:46.535Z,933.38
2017-09-12T04:44:14.563Z,933.34
2017-09-12T04:44:42.603Z,933.37
2017-09-12T04:45:10.680Z,933.39
2017-09-12T04:45:38.743Z,933.32
2017-09-12T04:46:06.698Z,933.35
2017-09-12T04:46:34.732Z,933.33
2017-09-12T04:47:02.905Z,933.32
2017-09-12T04:47:31.154Z,933.33
2017-09-12T04:47:59.218Z,933.34
2017-09-12T04:48:27.183Z,933.35
2017-09-12T04:48:55.328Z,933.33
2017-09-12T04:49:23.275Z,933.31
2017-09-12T04:49:51.013Z,933.3
2017-09-12T04:50:19.059Z,933.33
2017-09-12T04:50:47.200Z,933.3
2017-09-12T04:51:15.271Z,933.32
2017-09-12T04:51:43.333Z,933.3
2017-09-12T04:52:11.367Z,933.29
2017-09-12T04:52:39.522Z,933.31
2017-09-12T04:53:07.668Z,933.3
2017-09-12T04:53:35.699Z,933.29
2017-09-12T04:54:03.793Z,933.3
2017-09-12T04:54:31.826Z,933.29
2017-09-12T04:54:59.937Z,933.27
2017-09-12T04:55:28.001Z,933.27
2017-09-12T04:55:55.902Z,933.28
2017-09-12T04:56:23.969Z,933.24
2017-09-12T04:56:52.007Z,933.3
2017-09-12T04:57:19.958Z,933.28
2017-09-12T04:57:48.136Z,933.27
2017-09-12T04:58:16.290Z,933.27
2017-09-12T04:58:44.346Z,933.27
2017-09-12T04:59:12.326Z,933.22
2017-09-12T04:59:40.489Z,933.24
2017-09-12T05:00:08.558Z,933.22
2017-09-12T05:00:36.588Z,933.25
2017-09-12T05:01:04.720Z,933.21
2017-09-12T05:01:32.781Z,933.22
2017-09-12T05:02:00.903Z,933.21
2017-09-12T05:02:29.069Z,933.22
2017-09-12T05:02:57.213Z,933.21
2017-09-12T05:03:25.366Z,933.21
2017-09-12T05:03:53.539Z,933.2
2017-09-12T05:04:21.592Z,933.23
2017-09-12T05:04:49.611Z,933.2
2017-09-12T05:05:17.641Z,933.2
2017-09-12T05:05:45.708Z,933.16
2017-09-12T05:06:13.857Z,933.16
2017-09-12T05:06:41.805Z,933.15
2017-09-12T05:07:09.764Z,933.11
2017-09-12T05:07:37.964Z,933.14
2017-09-12T05:08:05.876Z,933.14
2017-09-12T05:08:33.732Z,933.16
2017-09-12T05:09:01.693Z,933.12
2017-09-12T05:09:29.806Z,933.11
2017-09-12T05:09:57.835Z,933.14
2017-09-12T05:10:25.994Z,933.15
2017-09-12T05:10:53.930Z,933.14
2017-09-12T05:11:22.024Z,933.1
2017-09-12T05:11:50.156Z,933.09
2017-09-12T05:12:18.067Z,933.1
2017-09-12T05:12:46.095Z,933.09
2017-09-12T05:13:14.140Z,933.09
2017-09-12T05:13:41.971Z,933.1
2017-09-12T05:14:10.007Z,933.1
2017-09-12T05:14:38.088Z,933.1
2017-09-12T05:15:06.180Z,933.1
2017-09-12T05:15:34.334Z,933.11
2017-09-12T05:16:02.379Z,933.1
2017-09-12T05:16:30.342Z,933.11
2017-09-12T05:16:58.339Z,933.1
2017-09-12T05:17:26.420Z,933.12
2017-09-12T05:17:54.591Z,933.12
2017-09-12T05:18:22.623Z,933.12
2017-09-12T05:18:50.553Z,933.12
2017-09-12T05:19:18.715Z,933.13
2017-09-12T05:19:46.838Z,933.13
2017-09-12T05:20:15.009Z,933.08
2017-09-12T05:20:42.934Z,933.09
2017-09-12T05:21:10.887Z,933.13
2017-09-12T05:21:38.866Z,933.09
2017-09-12T05:22:07.002Z,933.07
2017-09-12T05:22:35.146Z,933.07
2017-09-12T05:23:03.308Z,933.08
2017-09-12T05:23:31.355Z,933.07
2017-09-12T05:23:59.440Z,933.06
2017-09-12T05:24:27.596Z,933.05
2017-09-12T05:24:55.642Z,933.05
2017-09-12T05:25:23.761Z,933.04
2017-09-12T05:25:51.688Z,933.05
2017-09-12T05:26:19.860Z,933.05
2017-09-12T05:26:47.902Z,933.03
2017-09-12T05:27:15.949Z,933.03
2017-09-12T05:27:44.123Z,933.02
2017-09-12T05:28:12.285Z,933.04
2017-09-12T05:28:40.354Z,933.04
2017-09-12T05:29:08.435Z,933.02
2017-09-12T05:29:36.385Z,933.04
2017-09-12T05:30:04.404Z,933.03
2017-09-12T05:30:32.440Z,933.04
2017-09-12T05:31:00.623Z,933.02
2017-09-12T05:31:28.470Z,933.03
2017-09-12T05:31:56.501Z,933.03
2017-09-12T05:32:24.626Z,933.03
2017-09-12T05:32:52.777Z,933.04
2017-09-12T05:33:20.746Z,933.05
2017-09-12T05:33:48.656Z,933.03
2017-09-12T05:34:16.726Z,933.02
2017-09-12T05:34:44.576Z,933.02
2017-09-12T05:35:12.639Z,933
2017-09-12T05:35:40.526Z,933
2017-09-12T05:36:08.585Z,933.03
2017-09-12T05:36:36.528Z,932.99
2017-09-12T05:37:04.469Z,933.01
2017-09-12T05:37:32.514Z,933
2017-09-12T05:38:00.567Z,932.99
2017-09-12T05:38:28.626Z,933.02
2017-09-12T05:38:56.658Z,933.01
2017-09-12T05:39:24.807Z,933.01
2017-09-12T05:39:52.838Z,932.98
2017-09-12T05:40:20.769Z,932.98
2017-09-12T05:40:48.908Z,932.97
2017-09-12T05:41:17.017Z,933
2017-09-12T05:41:45.143Z,932.96
2017-09-12T05:42:13.078Z,932.95
2017-09-12T05:42:41.209Z,932.96
2017-09-12T05:43:09.451Z,932.93
2017-09-12T05:43:37.483Z,932.94
2017-09-12T05:44:05.534Z,932.95
2017-09-12T05:44:33.421Z,932.91
2017-09-12T05:45:01.381Z,932.93
2017-09-12T05:45:29.427Z,932.91
2017-09-12T05:45:57.594Z,932.93
2017-09-12T05:46:25.576Z,932.88
2017-09-12T05:46:53.715Z,932.89
2017-09-12T05:47:21.762Z,932.89
2017-09-12T05:47:49.831Z,932.92
2017-09-12T05:48:18.042Z,932.86
2017-09-12T05:48:46.177Z,932.89
2017-09-12T05:49:14.225Z,932.86
2017-09-12T05:49:42.271Z,932.85
2017-09-12T05:50:10.208Z,932.85
2017-09-12T05:50:38.347Z,932.84
2017-09-12T05:51:06.310Z,932.8
2017-09-12T05:51:34.338Z,932.82